Portada
METAR-TAF:

METAR-TAF

Aeroports :

Ambon, Indonèsia

latitud: 03-42S, longitud: 128-05E, altitud: 12 m

Observació

L'informe es va fer fa 1 hora i 56 minuts, a les 14:00 UTC
Vent 4 kt del Nord/Nord-Est
Temperatura 25°C
Humitat 94%
Pressió 1011 hPa
Visibilitat: 7000 m
Núvols disperses a una alçada de 1700 ft
pluja

METAR: WAPP 191400Z 02004KT 7000 -RA SCT017 25/24 Q1011 NOSIG

Hora: 00:56 (15:56 UTC)

Pronòstic

L'informe es va fer fa 4 hores i 56 minuts, a les 11:00 UTC
Pronòstic vàlid del 19 a les 12 UTC al 20 a les 12 UTC
Vent 6 kt del Nord/Nord-Oest
Visibilitat: 8000 m
Cel ennuvolat a una alçada de 1700 ft
pluja
Evolucionant progressivament
l' 19 a les 14 UTC al 19 a les 16 UTC
Visibilitat 10 km o més
Evolucionant progressivament
l' 19 a les 23 UTC al 20 a les 01 UTC
Vent 6 kt del Sud/Sud-Est

TAF: WAPP 191100Z 1912/2012 33006KT 8000 -RA BKN017 BECMG 1914/1916 9999 NSW BECMG 1923/2001 15006KT

Observacions i pronòstics meteorològics de més de 4000 aeroports (METAR i TAF).

Les estacions disponibles són els punts grocs i vermells al mapa.

Posi el ratolí al punt desitjat per veure el nom de l'estació.

Feu clic per veure les observacions i els pronòstics meteorològics.

Per canviar el mapa: feu clic els botons verds amb una creu de color negre per apropar; al botó verd amb un guió per allunyar la imatge; o en les fletxes verdes per a mapes adjacents.


METAR-TAF: